sensor_id;sensor_type;location;lat;lon;timestamp;pressure;altitude;pressure_sealevel;temperature;humidity
37852;BME280;23691;52.486;4.650;2023-02-03T00:01:42;102393.75;;;8.93;87.05
37852;BME280;23691;52.486;4.650;2023-02-03T00:04:07;102400.06;;;8.92;86.87
37852;BME280;23691;52.486;4.650;2023-02-03T00:06:32;102402.50;;;8.95;86.83
37852;BME280;23691;52.486;4.650;2023-02-03T00:08:58;102422.78;;;8.97;86.59
37852;BME280;23691;52.486;4.650;2023-02-03T00:11:27;102412.72;;;9.01;86.49
37852;BME280;23691;52.486;4.650;2023-02-03T00:13:53;102410.66;;;9.05;86.18
37852;BME280;23691;52.486;4.650;2023-02-03T00:16:18;102427.31;;;9.08;85.95
37852;BME280;23691;52.486;4.650;2023-02-03T00:18:44;102420.91;;;9.11;85.72
37852;BME280;23691;52.486;4.650;2023-02-03T00:21:09;102435.94;;;9.12;85.53
37852;BME280;23691;52.486;4.650;2023-02-03T00:23:35;102435.69;;;9.15;85.40
37852;BME280;23691;52.486;4.650;2023-02-03T00:26:12;102436.34;;;9.18;84.98
37852;BME280;23691;52.486;4.650;2023-02-03T00:28:37;102436.34;;;9.18;84.93
37852;BME280;23691;52.486;4.650;2023-02-03T00:31:03;102451.28;;;9.21;84.88
37852;BME280;23691;52.486;4.650;2023-02-03T00:33:29;102447.72;;;9.20;84.70
37852;BME280;23691;52.486;4.650;2023-02-03T00:35:54;102433.53;;;9.20;84.21
37852;BME280;23691;52.486;4.650;2023-02-03T00:38:20;102438.88;;;9.20;84.36
37852;BME280;23691;52.486;4.650;2023-02-03T00:40:54;102430.50;;;9.24;84.36
37852;BME280;23691;52.486;4.650;2023-02-03T00:43:21;102417.88;;;9.27;84.19
37852;BME280;23691;52.486;4.650;2023-02-03T00:45:47;102399.81;;;9.30;83.93
37852;BME280;23691;52.486;4.650;2023-02-03T00:48:12;102412.06;;;9.33;83.82
37852;BME280;23691;52.486;4.650;2023-02-03T00:50:38;102407.59;;;9.33;83.46
37852;BME280;23691;52.486;4.650;2023-02-03T00:53:04;102419.13;;;9.34;83.31
37852;BME280;23691;52.486;4.650;2023-02-03T00:55:29;102415.72;;;9.32;83.20
37852;BME280;23691;52.486;4.650;2023-02-03T00:57:54;102417.53;;;9.31;83.48
37852;BME280;23691;52.486;4.650;2023-02-03T01:00:20;102413.03;;;9.32;83.44
37852;BME280;23691;52.486;4.650;2023-02-03T01:02:46;102388.03;;;9.33;83.32
37852;BME280;23691;52.486;4.650;2023-02-03T01:05:11;102390.00;;;9.31;83.38
37852;BME280;23691;52.486;4.650;2023-02-03T01:07:37;102386.44;;;9.30;83.47
37852;BME280;23691;52.486;4.650;2023-02-03T01:10:03;102392.78;;;9.29;83.49
37852;BME280;23691;52.486;4.650;2023-02-03T01:12:29;102402.72;;;9.27;83.51
37852;BME280;23691;52.486;4.650;2023-02-03T01:14:55;102388.63;;;9.25;83.73
37852;BME280;23691;52.486;4.650;2023-02-03T01:17:20;102358.66;;;9.21;83.68
37852;BME280;23691;52.486;4.650;2023-02-03T01:19:45;102372.25;;;9.18;83.30
37852;BME280;23691;52.486;4.650;2023-02-03T01:22:11;102374.28;;;9.15;83.69
37852;BME280;23691;52.486;4.650;2023-02-03T01:24:36;102379.38;;;9.18;83.90
37852;BME280;23691;52.486;4.650;2023-02-03T01:27:01;102386.44;;;9.19;83.70
37852;BME280;23691;52.486;4.650;2023-02-03T01:29:27;102389.72;;;9.22;83.59
37852;BME280;23691;52.486;4.650;2023-02-03T01:31:52;102390.59;;;9.23;83.28
37852;BME280;23691;52.486;4.650;2023-02-03T01:34:18;102375.50;;;9.22;83.27
37852;BME280;23691;52.486;4.650;2023-02-03T01:36:43;102381.69;;;9.22;83.07
37852;BME280;23691;52.486;4.650;2023-02-03T01:39:11;102367.41;;;9.23;82.88
37852;BME280;23691;52.486;4.650;2023-02-03T01:41:38;102355.63;;;9.26;82.78
37852;BME280;23691;52.486;4.650;2023-02-03T01:47:01;102351.03;;;9.28;82.18
37852;BME280;23691;52.486;4.650;2023-02-03T01:49:30;102354.78;;;9.26;82.35
37852;BME280;23691;52.486;4.650;2023-02-03T01:51:58;102357.56;;;9.24;82.38
37852;BME280;23691;52.486;4.650;2023-02-03T01:54:28;102358.28;;;9.26;82.70
37852;BME280;23691;52.486;4.650;2023-02-03T01:57:01;102360.97;;;9.26;82.30
37852;BME280;23691;52.486;4.650;2023-02-03T01:59:29;102353.91;;;9.25;82.32
37852;BME280;23691;52.486;4.650;2023-02-03T02:01:56;102366.31;;;9.26;82.35
37852;BME280;23691;52.486;4.650;2023-02-03T02:04:27;102377.94;;;9.25;82.82
37852;BME280;23691;52.486;4.650;2023-02-03T02:06:55;102382.44;;;9.24;82.84
37852;BME280;23691;52.486;4.650;2023-02-03T02:09:22;102370.06;;;9.23;82.84
37852;BME280;23691;52.486;4.650;2023-02-03T02:11:48;102369.22;;;9.23;82.88
37852;BME280;23691;52.486;4.650;2023-02-03T02:14:13;102370.06;;;9.23;82.77
37852;BME280;23691;52.486;4.650;2023-02-03T02:17:14;102360.22;;;9.24;82.96
37852;BME280;23691;52.486;4.650;2023-02-03T02:23:10;102366.41;;;9.24;83.08
37852;BME280;23691;52.486;4.650;2023-02-03T02:26:04;102362.06;;;9.23;83.37
37852;BME280;23691;52.486;4.650;2023-02-03T02:37:06;102366.91;;;9.18;83.72
37852;BME280;23691;52.486;4.650;2023-02-03T02:39:46;102359.00;;;9.17;84.16
37852;BME280;23691;52.486;4.650;2023-02-03T02:42:25;102346.38;;;9.19;84.32
37852;BME280;23691;52.486;4.650;2023-02-03T02:44:56;102361.78;;;9.15;84.34
37852;BME280;23691;52.486;4.650;2023-02-03T02:47:23;102344.81;;;9.16;84.17
37852;BME280;23691;52.486;4.650;2023-02-03T02:52:22;102351.59;;;9.20;84.03
37852;BME280;23691;52.486;4.650;2023-02-03T02:54:55;102349.66;;;9.22;84.10
37852;BME280;23691;52.486;4.650;2023-02-03T02:57:25;102339.09;;;9.21;84.11
37852;BME280;23691;52.486;4.650;2023-02-03T02:59:50;102344.66;;;9.18;84.08
37852;BME280;23691;52.486;4.650;2023-02-03T03:02:16;102343.09;;;9.15;84.29
37852;BME280;23691;52.486;4.650;2023-02-03T03:04:43;102345.53;;;9.18;84.02
37852;BME280;23691;52.486;4.650;2023-02-03T03:07:15;102359.84;;;9.17;84.13
37852;BME280;23691;52.486;4.650;2023-02-03T03:09:46;102362.41;;;9.19;84.29
37852;BME280;23691;52.486;4.650;2023-02-03T03:12:16;102356.44;;;9.15;84.35
37852;BME280;23691;52.486;4.650;2023-02-03T03:14:48;102358.16;;;9.16;84.37
37852;BME280;23691;52.486;4.650;2023-02-03T03:17:20;102352.81;;;9.16;84.43
37852;BME280;23691;52.486;4.650;2023-02-03T03:19:54;102342.25;;;9.15;84.40
37852;BME280;23691;52.486;4.650;2023-02-03T03:22:26;102343.09;;;9.15;84.40
37852;BME280;23691;52.486;4.650;2023-02-03T03:25:03;102334.97;;;9.17;84.37
37852;BME280;23691;52.486;4.650;2023-02-03T03:27:35;102338.63;;;9.16;84.34
37852;BME280;23691;52.486;4.650;2023-02-03T03:30:09;102343.09;;;9.15;84.26
37852;BME280;23691;52.486;4.650;2023-02-03T03:32:36;102336.16;;;9.13;84.48
37852;BME280;23691;52.486;4.650;2023-02-03T03:35:02;102339.81;;;9.12;84.70
37852;BME280;23691;52.486;4.650;2023-02-03T03:37:37;102353.91;;;9.14;84.58
37852;BME280;23691;52.486;4.650;2023-02-03T03:40:15;102351.97;;;9.16;84.54
37852;BME280;23691;52.486;4.650;2023-02-03T03:42:49;102352.91;;;9.15;84.47
37852;BME280;23691;52.486;4.650;2023-02-03T03:45:19;102371.59;;;9.15;84.38
37852;BME280;23691;52.486;4.650;2023-02-03T03:47:55;102355.59;;;9.15;84.25
37852;BME280;23691;52.486;4.650;2023-02-03T03:50:27;102361.06;;;9.13;84.35
37852;BME280;23691;52.486;4.650;2023-02-03T03:52:57;102352.31;;;9.11;84.27
37852;BME280;23691;52.486;4.650;2023-02-03T03:55:25;102358.59;;;9.10;84.57
37852;BME280;23691;52.486;4.650;2023-02-03T03:58:04;102350.38;;;9.13;84.55
37852;BME280;23691;52.486;4.650;2023-02-03T04:00:33;102373.53;;;9.13;84.51
37852;BME280;23691;52.486;4.650;2023-02-03T04:03:04;102378.88;;;9.13;84.49
37852;BME280;23691;52.486;4.650;2023-02-03T04:05:32;102367.34;;;9.12;84.40
37852;BME280;23691;52.486;4.650;2023-02-03T04:07:58;102379.63;;;9.15;84.24
37852;BME280;23691;52.486;4.650;2023-02-03T04:10:33;102367.00;;;9.17;84.35
37852;BME280;23691;52.486;4.650;2023-02-03T04:12:59;102352.81;;;9.16;84.31
37852;BME280;23691;52.486;4.650;2023-02-03T04:15:25;102359.84;;;9.17;84.33
37852;BME280;23691;52.486;4.650;2023-02-03T04:17:51;102352.66;;;9.18;84.34
37852;BME280;23691;52.486;4.650;2023-02-03T04:20:17;102352.66;;;9.18;84.23
37852;BME280;23691;52.486;4.650;2023-02-03T04:22:42;102358.75;;;9.20;84.05
37852;BME280;23691;52.486;4.650;2023-02-03T04:25:08;102359.59;;;9.20;84.16
37852;BME280;23691;52.486;4.650;2023-02-03T04:27:34;102365.81;;;9.21;83.99
37852;BME280;23691;52.486;4.650;2023-02-03T04:29:59;102363.97;;;9.21;84.40
37852;BME280;23691;52.486;4.650;2023-02-03T04:32:25;102368.34;;;9.22;84.16
37852;BME280;23691;52.486;4.650;2023-02-03T04:34:50;102361.06;;;9.24;84.23
37852;BME280;23691;52.486;4.650;2023-02-03T04:37:16;102345.03;;;9.24;83.91
37852;BME280;23691;52.486;4.650;2023-02-03T04:39:41;102349.44;;;9.26;84.09
37852;BME280;23691;52.486;4.650;2023-02-03T04:42:06;102349.28;;;9.27;83.82
37852;BME280;23691;52.486;4.650;2023-02-03T04:44:32;102342.28;;;9.26;83.58
37852;BME280;23691;52.486;4.650;2023-02-03T04:46:57;102339.59;;;9.26;83.72
37852;BME280;23691;52.486;4.650;2023-02-03T04:49:23;102342.38;;;9.24;83.72
37852;BME280;23691;52.486;4.650;2023-02-03T04:51:48;102346.75;;;9.26;83.43
37852;BME280;23691;52.486;4.650;2023-02-03T04:54:14;102357.44;;;9.26;83.70
37852;BME280;23691;52.486;4.650;2023-02-03T04:56:39;102351.22;;;9.25;83.60
37852;BME280;23691;52.486;4.650;2023-02-03T04:59:05;102354.63;;;9.27;83.82
37852;BME280;23691;52.486;4.650;2023-02-03T05:01:30;102356.34;;;9.28;83.58
37852;BME280;23691;52.486;4.650;2023-02-03T05:03:55;102357.44;;;9.26;83.52
37852;BME280;23691;52.486;4.650;2023-02-03T05:06:23;102358.28;;;9.26;83.63
37852;BME280;23691;52.486;4.650;2023-02-03T05:08:49;102358.28;;;9.26;83.40
37852;BME280;23691;52.486;4.650;2023-02-03T05:11:15;102358.28;;;9.26;83.50
37852;BME280;23691;52.486;4.650;2023-02-03T05:13:40;102349.44;;;9.26;83.56
37852;BME280;23691;52.486;4.650;2023-02-03T05:16:05;102351.97;;;9.27;83.53
37852;BME280;23691;52.486;4.650;2023-02-03T05:18:31;102363.63;;;9.26;83.64
37852;BME280;23691;52.486;4.650;2023-02-03T05:20:56;102377.84;;;9.27;83.54
37852;BME280;23691;52.486;4.650;2023-02-03T05:23:21;102370.66;;;9.27;83.56
37852;BME280;23691;52.486;4.650;2023-02-03T05:25:47;102363.50;;;9.28;83.44
37852;BME280;23691;52.486;4.650;2023-02-03T05:28:12;102369.81;;;9.27;83.70
37852;BME280;23691;52.486;4.650;2023-02-03T05:30:38;102352.94;;;9.26;83.59
37852;BME280;23691;52.486;4.650;2023-02-03T05:33:03;102377.00;;;9.26;83.50
37852;BME280;23691;52.486;4.650;2023-02-03T05:35:29;102368.13;;;9.26;83.62
37852;BME280;23691;52.486;4.650;2023-02-03T05:37:54;102368.97;;;9.26;83.39
37852;BME280;23691;52.486;4.650;2023-02-03T05:40:19;102377.94;;;9.25;83.46
37852;BME280;23691;52.486;4.650;2023-02-03T05:43:03;102368.34;;;9.22;83.29
37852;BME280;23691;52.486;4.650;2023-02-03T05:45:29;102371.00;;;9.22;83.30
37852;BME280;23691;52.486;4.650;2023-02-03T05:47:54;102367.41;;;9.23;83.25
37852;BME280;23691;52.486;4.650;2023-02-03T05:50:19;102368.34;;;9.22;83.21
37852;BME280;23691;52.486;4.650;2023-02-03T05:52:47;102371.88;;;9.23;83.18
37852;BME280;23691;52.486;4.650;2023-02-03T05:55:12;102382.69;;;9.21;83.27
37852;BME280;23691;52.486;4.650;2023-02-03T05:57:37;102381.59;;;9.24;82.98
37852;BME280;23691;52.486;4.650;2023-02-03T06:00:03;102386.09;;;9.23;82.98
37852;BME280;23691;52.486;4.650;2023-02-03T06:02:29;102375.25;;;9.25;82.99
37852;BME280;23691;52.486;4.650;2023-02-03T06:04:54;102385.84;;;9.27;83.15
37852;BME280;23691;52.486;4.650;2023-02-03T06:07:19;102384.25;;;9.24;83.11
37852;BME280;23691;52.486;4.650;2023-02-03T06:09:45;102376.34;;;9.22;83.08
37852;BME280;23691;52.486;4.650;2023-02-03T06:12:10;102377.22;;;9.23;83.17
37852;BME280;23691;52.486;4.650;2023-02-03T06:14:35;102384.25;;;9.24;83.00
37852;BME280;23691;52.486;4.650;2023-02-03T06:17:01;102377.22;;;9.23;83.05
37852;BME280;23691;52.486;4.650;2023-02-03T06:19:26;102366.56;;;9.23;83.41
37852;BME280;23691;52.486;4.650;2023-02-03T06:21:51;102362.91;;;9.24;83.30
37852;BME280;23691;52.486;4.650;2023-02-03T06:24:17;102373.56;;;9.24;83.40
37852;BME280;23691;52.486;4.650;2023-02-03T06:26:42;102374.56;;;9.23;83.35
37852;BME280;23691;52.486;4.650;2023-02-03T06:29:07;102383.28;;;9.25;83.21
37852;BME280;23691;52.486;4.650;2023-02-03T06:31:33;102385.44;;;9.20;83.40
37852;BME280;23691;52.486;4.650;2023-02-03T06:33:58;102386.44;;;9.19;83.29
37852;BME280;23691;52.486;4.650;2023-02-03T06:36:26;102391.03;;;9.17;83.45
37852;BME280;23691;52.486;4.650;2023-02-03T06:38:52;102392.72;;;9.18;83.50
37852;BME280;23691;52.486;4.650;2023-02-03T06:41:17;102406.97;;;9.18;83.74
37852;BME280;23691;52.486;4.650;2023-02-03T06:43:42;102431.00;;;9.18;83.49
37852;BME280;23691;52.486;4.650;2023-02-03T06:46:08;102409.50;;;9.20;83.75
37852;BME280;23691;52.486;4.650;2023-02-03T06:48:33;102407.66;;;9.20;83.75
37852;BME280;23691;52.486;4.650;2023-02-03T06:50:58;102404.03;;;9.21;83.86
37852;BME280;23691;52.486;4.650;2023-02-03T06:53:24;102389.59;;;9.24;83.71
37852;BME280;23691;52.486;4.650;2023-02-03T06:55:49;102390.44;;;9.24;83.76
37852;BME280;23691;52.486;4.650;2023-02-03T06:58:15;102386.09;;;9.23;83.80
37852;BME280;23691;52.486;4.650;2023-02-03T07:00:40;102396.78;;;9.23;83.94
37852;BME280;23691;52.486;4.650;2023-02-03T07:03:05;102388.63;;;9.25;83.78
37852;BME280;23691;52.486;4.650;2023-02-03T07:05:31;102397.50;;;9.26;83.86
37852;BME280;23691;52.486;4.650;2023-02-03T07:07:56;102411.47;;;9.29;84.01
37852;BME280;23691;52.486;4.650;2023-02-03T07:10:23;102403.44;;;9.29;83.92
37852;BME280;23691;52.486;4.650;2023-02-03T07:12:48;102402.59;;;9.29;83.91
37852;BME280;23691;52.486;4.650;2023-02-03T07:15:15;102412.44;;;9.28;84.05
37852;BME280;23691;52.486;4.650;2023-02-03T07:17:41;102413.41;;;9.27;83.92
37852;BME280;23691;52.486;4.650;2023-02-03T07:20:06;102403.81;;;9.24;84.02
37852;BME280;23691;52.486;4.650;2023-02-03T07:22:32;102410.88;;;9.26;84.08
37852;BME280;23691;52.486;4.650;2023-02-03T07:24:57;102421.53;;;9.26;84.21
37852;BME280;23691;52.486;4.650;2023-02-03T07:27:23;102406.38;;;9.26;84.22
37852;BME280;23691;52.486;4.650;2023-02-03T07:29:48;102425.91;;;9.27;84.13
37852;BME280;23691;52.486;4.650;2023-02-03T07:32:13;102416.06;;;9.27;84.39
37852;BME280;23691;52.486;4.650;2023-02-03T07:34:39;102425.06;;;9.26;84.46
37852;BME280;23691;52.486;4.650;2023-02-03T07:37:04;102431.25;;;9.27;84.53
37852;BME280;23691;52.486;4.650;2023-02-03T07:39:30;102434.75;;;9.27;84.48
37852;BME280;23691;52.486;4.650;2023-02-03T07:41:55;102442.66;;;9.29;84.75
37852;BME280;23691;52.486;4.650;2023-02-03T07:44:21;102438.16;;;9.29;84.66
37852;BME280;23691;52.486;4.650;2023-02-03T07:46:46;102431.00;;;9.30;84.71
37852;BME280;23691;52.486;4.650;2023-02-03T07:49:12;102428.81;;;9.35;84.65
37852;BME280;23691;52.486;4.650;2023-02-03T07:51:38;102425.94;;;9.38;84.78
37852;BME280;23691;52.486;4.650;2023-02-03T07:54:03;102433.72;;;9.41;84.69
37852;BME280;23691;52.486;4.650;2023-02-03T07:56:28;102447.66;;;9.44;84.58
37852;BME280;23691;52.486;4.650;2023-02-03T07:58:57;102444.66;;;9.49;84.53
37852;BME280;23691;52.486;4.650;2023-02-03T08:01:22;102447.09;;;9.52;83.98
37852;BME280;23691;52.486;4.650;2023-02-03T08:03:48;102465.56;;;9.55;84.38
37852;BME280;23691;52.486;4.650;2023-02-03T08:06:13;102464.59;;;9.56;83.84
37852;BME280;23691;52.486;4.650;2023-02-03T08:08:39;102462.66;;;9.58;83.89
37852;BME280;23691;52.486;4.650;2023-02-03T08:11:05;102448.19;;;9.61;83.83
37852;BME280;23691;52.486;4.650;2023-02-03T08:13:31;102471.28;;;9.62;83.80
37852;BME280;23691;52.486;4.650;2023-02-03T08:15:56;102464.13;;;9.62;84.00
37852;BME280;23691;52.486;4.650;2023-02-03T08:18:22;102474.69;;;9.64;83.78
37852;BME280;23691;52.486;4.650;2023-02-03T08:20:47;102472.84;;;9.64;83.78
37852;BME280;23691;52.486;4.650;2023-02-03T08:23:13;102468.25;;;9.66;84.12
37852;BME280;23691;52.486;4.650;2023-02-03T08:25:38;102460.97;;;9.68;83.81
37852;BME280;23691;52.486;4.650;2023-02-03T08:28:04;102462.78;;;9.68;83.86
37852;BME280;23691;52.486;4.650;2023-02-03T08:30:29;102489.38;;;9.70;83.69
37852;BME280;23691;52.486;4.650;2023-02-03T08:32:54;102489.38;;;9.70;83.58
37852;BME280;23691;52.486;4.650;2023-02-03T08:35:20;102487.34;;;9.73;83.70
37852;BME280;23691;52.486;4.650;2023-02-03T08:37:45;102488.09;;;9.75;83.70
37852;BME280;23691;52.486;4.650;2023-02-03T08:40:11;102500.47;;;9.76;83.49
37852;BME280;23691;52.486;4.650;2023-02-03T08:42:37;102516.38;;;9.78;83.46
37852;BME280;23691;52.486;4.650;2023-02-03T08:45:02;102506.66;;;9.77;83.37
37852;BME280;23691;52.486;4.650;2023-02-03T08:47:28;102500.47;;;9.76;83.52
37852;BME280;23691;52.486;4.650;2023-02-03T08:49:53;102526.09;;;9.79;83.53
37852;BME280;23691;52.486;4.650;2023-02-03T08:52:19;102527.09;;;9.78;83.42
37852;BME280;23691;52.486;4.650;2023-02-03T08:54:45;102512.00;;;9.77;83.56
37852;BME280;23691;52.486;4.650;2023-02-03T08:57:10;102521.25;;;9.73;83.64
37852;BME280;23691;52.486;4.650;2023-02-03T08:59:40;102522.09;;;9.73;83.73
37852;BME280;23691;52.486;4.650;2023-02-03T09:02:10;102526.59;;;9.73;83.66
37852;BME280;23691;52.486;4.650;2023-02-03T09:04:35;102526.59;;;9.73;83.73
37852;BME280;23691;52.486;4.650;2023-02-03T09:07:01;102547.84;;;9.74;83.93
37852;BME280;23691;52.486;4.650;2023-02-03T09:09:29;102532.66;;;9.75;83.87
37852;BME280;23691;52.486;4.650;2023-02-03T09:11:54;102539.59;;;9.77;83.71
37852;BME280;23691;52.486;4.650;2023-02-03T09:14:26;102545.78;;;9.78;83.55
37852;BME280;23691;52.486;4.650;2023-02-03T09:16:52;102551.88;;;9.80;83.63
37852;BME280;23691;52.486;4.650;2023-02-03T09:19:17;102538.13;;;9.84;83.60
37852;BME280;23691;52.486;4.650;2023-02-03T09:21:43;102545.31;;;9.84;83.61
37852;BME280;23691;52.486;4.650;2023-02-03T09:24:09;102558.69;;;9.84;83.38
37852;BME280;23691;52.486;4.650;2023-02-03T09:26:35;102554.31;;;9.83;83.68
37852;BME280;23691;52.486;4.650;2023-02-03T09:29:00;102555.06;;;9.85;83.61
37852;BME280;23691;52.486;4.650;2023-02-03T09:31:25;102551.28;;;9.87;83.50
37852;BME280;23691;52.486;4.650;2023-02-03T09:33:51;102561.13;;;9.87;83.35
37852;BME280;23691;52.486;4.650;2023-02-03T09:36:16;102568.41;;;9.85;83.73
37852;BME280;23691;52.486;4.650;2023-02-03T09:38:41;102583.56;;;9.84;83.52
37852;BME280;23691;52.486;4.650;2023-02-03T09:43:42;102572.53;;;9.78;83.68
37852;BME280;23691;52.486;4.650;2023-02-03T09:46:16;102575.94;;;9.80;83.47
37852;BME280;23691;52.486;4.650;2023-02-03T09:48:47;102569.84;;;9.78;83.91
37852;BME280;23691;52.486;4.650;2023-02-03T09:51:35;102567.78;;;9.81;83.62
37852;BME280;23691;52.486;4.650;2023-02-03T09:54:14;102577.38;;;9.84;83.70
37852;BME280;23691;52.486;4.650;2023-02-03T09:56:42;102584.47;;;9.85;83.62
37852;BME280;23691;52.486;4.650;2023-02-03T09:59:16;102585.06;;;9.88;83.47
37852;BME280;23691;52.486;4.650;2023-02-03T10:04:36;102571.44;;;9.92;83.19
37852;BME280;23691;52.486;4.650;2023-02-03T10:10:38;102590.78;;;9.95;83.09
37852;BME280;23691;52.486;4.650;2023-02-03T10:18:47;102590.44;;;10.11;82.29
37852;BME280;23691;52.486;4.650;2023-02-03T10:21:20;102596.28;;;10.16;82.35
37852;BME280;23691;52.486;4.650;2023-02-03T10:23:49;102616.00;;;10.15;82.06
37852;BME280;23691;52.486;4.650;2023-02-03T10:26:22;102617.09;;;10.13;82.12
37852;BME280;23691;52.486;4.650;2023-02-03T10:28:56;102629.97;;;10.19;82.05
37852;BME280;23691;52.486;4.650;2023-02-03T10:31:25;102626.22;;;10.21;81.99
37852;BME280;23691;52.486;4.650;2023-02-03T10:33:59;102626.22;;;10.21;82.26
37852;BME280;23691;52.486;4.650;2023-02-03T10:36:34;102622.34;;;10.25;81.69
37852;BME280;23691;52.486;4.650;2023-02-03T10:41:52;102630.59;;;10.22;81.58
37852;BME280;23691;52.486;4.650;2023-02-03T10:44:18;102619.66;;;10.25;81.48
37852;BME280;23691;52.486;4.650;2023-02-03T10:46:43;102634.53;;;10.29;81.56
37852;BME280;23691;52.486;4.650;2023-02-03T10:49:28;102650.59;;;10.29;81.38
37852;BME280;23691;52.486;4.650;2023-02-03T10:51:59;102634.13;;;10.23;81.31
37852;BME280;23691;52.486;4.650;2023-02-03T10:54:30;102644.34;;;10.18;81.81
37852;BME280;23691;52.486;4.650;2023-02-03T10:57:05;102659.03;;;10.12;82.01
37852;BME280;23691;52.486;4.650;2023-02-03T10:59:35;102648.56;;;10.09;82.05
37852;BME280;23691;52.486;4.650;2023-02-03T11:02:26;102657.44;;;10.09;81.96
37852;BME280;23691;52.486;4.650;2023-02-03T11:07:40;102655.72;;;10.08;82.06
37852;BME280;23691;52.486;4.650;2023-02-03T11:10:27;102650.63;;;10.05;82.23
37852;BME280;23691;52.486;4.650;2023-02-03T11:15:37;102659.00;;;10.01;82.65
37852;BME280;23691;52.486;4.650;2023-02-03T11:18:02;102669.59;;;10.02;82.81
37852;BME280;23691;52.486;4.650;2023-02-03T11:20:28;102662.41;;;10.03;82.53
37852;BME280;23691;52.486;4.650;2023-02-03T11:22:54;102674.09;;;10.02;82.35
37852;BME280;23691;52.486;4.650;2023-02-03T11:25:25;102676.13;;;9.98;82.84
37852;BME280;23691;52.486;4.650;2023-02-03T11:27:53;102673.78;;;9.94;82.99
37852;BME280;23691;52.486;4.650;2023-02-03T11:30:23;102672.34;;;9.89;82.92
37852;BME280;23691;52.486;4.650;2023-02-03T11:32:51;102676.81;;;9.89;83.35
37852;BME280;23691;52.486;4.650;2023-02-03T11:35:27;102670.16;;;9.95;83.15
37852;BME280;23691;52.486;4.650;2023-02-03T11:37:58;102677.31;;;9.94;83.14
37852;BME280;23691;52.486;4.650;2023-02-03T11:40:31;102673.94;;;9.92;83.55
37852;BME280;23691;52.486;4.650;2023-02-03T11:43:02;102675.84;;;9.90;83.60
37852;BME280;23691;52.486;4.650;2023-02-03T11:48:30;102675.38;;;9.96;83.74
37852;BME280;23691;52.486;4.650;2023-02-03T11:51:17;102664.56;;;9.98;83.83
37852;BME280;23691;52.486;4.650;2023-02-03T11:59:35;102695.66;;;10.23;83.37
37852;BME280;23691;52.486;4.650;2023-02-03T12:10:42;102701.09;;;10.34;83.14
37852;BME280;23691;52.486;4.650;2023-02-03T12:13:43;102692.72;;;10.39;82.89
37852;BME280;23691;52.486;4.650;2023-02-03T12:16:40;102682.34;;;10.45;82.76
37852;BME280;23691;52.486;4.650;2023-02-03T12:25:06;102699.03;;;10.49;82.69
37852;BME280;23691;52.486;4.650;2023-02-03T12:27:40;102708.53;;;10.53;82.54
37852;BME280;23691;52.486;4.650;2023-02-03T12:30:16;102718.13;;;10.56;82.37
37852;BME280;23691;52.486;4.650;2023-02-03T12:32:53;102710.09;;;10.56;82.13
37852;BME280;23691;52.486;4.650;2023-02-03T12:35:25;102720.81;;;10.56;82.58
37852;BME280;23691;52.486;4.650;2023-02-03T12:40:44;102720.47;;;10.60;82.32
37852;BME280;23691;52.486;4.650;2023-02-03T12:43:25;102742.84;;;10.59;82.17
37852;BME280;23691;52.486;4.650;2023-02-03T12:46:53;102728.00;;;10.55;82.03
37852;BME280;23691;52.486;4.650;2023-02-03T12:51:39;102730.91;;;10.52;82.16
37852;BME280;23691;52.486;4.650;2023-02-03T12:54:22;102741.97;;;10.47;82.27
37852;BME280;23691;52.486;4.650;2023-02-03T12:56:53;102733.84;;;10.49;82.29
37852;BME280;23691;52.486;4.650;2023-02-03T12:59:22;102748.41;;;10.45;82.33
37852;BME280;23691;52.486;4.650;2023-02-03T13:02:17;102754.97;;;10.41;82.62
37852;BME280;23691;52.486;4.650;2023-02-03T13:05:38;102758.84;;;10.37;82.81
37852;BME280;23691;52.486;4.650;2023-02-03T13:07:46;102767.63;;;10.39;82.73
37852;BME280;23691;52.486;4.650;2023-02-03T13:10:32;102763.56;;;10.33;82.66
37852;BME280;23691;52.486;4.650;2023-02-03T13:13:02;102765.75;;;10.28;83.04
37852;BME280;23691;52.486;4.650;2023-02-03T13:15:36;102770.84;;;10.31;83.18
37852;BME280;23691;52.486;4.650;2023-02-03T13:18:33;102771.59;;;10.33;82.99
37852;BME280;23691;52.486;4.650;2023-02-03T13:20:59;102762.72;;;10.32;82.90
37852;BME280;23691;52.486;4.650;2023-02-03T13:23:25;102777.78;;;10.34;82.95
37852;BME280;23691;52.486;4.650;2023-02-03T13:31:29;102762.97;;;10.29;82.73
37852;BME280;23691;52.486;4.650;2023-02-03T13:34:22;102766.78;;;10.25;82.77
37852;BME280;23691;52.486;4.650;2023-02-03T13:40:14;102777.22;;;10.17;82.75
37852;BME280;23691;52.486;4.650;2023-02-03T13:43:03;102774.25;;;10.09;82.94
37852;BME280;23691;52.486;4.650;2023-02-03T13:45:39;102773.53;;;10.07;82.90
37852;BME280;23691;52.486;4.650;2023-02-03T13:48:17;102767.09;;;10.09;82.86
37852;BME280;23691;52.486;4.650;2023-02-03T13:50:47;102771.38;;;10.12;82.84
37852;BME280;23691;52.486;4.650;2023-02-03T13:53:17;102771.97;;;10.16;82.65
37852;BME280;23691;52.486;4.650;2023-02-03T13:56:16;102771.75;;;10.19;82.70
37852;BME280;23691;52.486;4.650;2023-02-03T13:58:58;102767.63;;;10.15;82.24
37852;BME280;23691;52.486;4.650;2023-02-03T14:01:28;102766.53;;;10.17;82.31
37852;BME280;23691;52.486;4.650;2023-02-03T14:03:55;102778.81;;;10.20;81.92
37852;BME280;23691;52.486;4.650;2023-02-03T14:12:15;102779.78;;;10.19;81.63
37852;BME280;23691;52.486;4.650;2023-02-03T14:14:56;102784.41;;;10.17;81.12
37852;BME280;23691;52.486;4.650;2023-02-03T14:19:59;102777.22;;;10.17;80.84
37852;BME280;23691;52.486;4.650;2023-02-03T14:22:24;102784.50;;;10.15;80.43
37852;BME280;23691;52.486;4.650;2023-02-03T14:24:53;102794.47;;;10.13;80.59
37852;BME280;23691;52.486;4.650;2023-02-03T14:27:24;102802.72;;;10.10;80.39
37852;BME280;23691;52.486;4.650;2023-02-03T14:30:11;102802.72;;;10.10;80.28
37852;BME280;23691;52.486;4.650;2023-02-03T14:32:52;102795.13;;;10.04;80.02
37852;BME280;23691;52.486;4.650;2023-02-03T14:35:27;102795.59;;;9.98;79.76